createdAt,value
2023-02-06T00:01:52.145Z,94801.16
2023-02-06T00:04:19.027Z,94799.72
2023-02-06T00:06:45.804Z,94807.25
2023-02-06T00:09:12.590Z,94794.94
2023-02-06T00:11:39.208Z,94810.94
2023-02-06T00:14:07.060Z,94814.88
2023-02-06T00:16:34.871Z,94822.44
2023-02-06T00:19:02.307Z,94818.72
2023-02-06T00:21:30.169Z,94821.09
2023-02-06T00:24:00.358Z,94814.72
2023-02-06T00:26:27.471Z,94829.25
2023-02-06T00:28:54.410Z,94824.31
2023-02-06T00:31:21.295Z,94830.94
2023-02-06T00:33:48.245Z,94823.97
2023-02-06T00:36:14.879Z,94832.97
2023-02-06T00:38:41.578Z,94836.44
2023-02-06T00:41:08.377Z,94833.38
2023-02-06T00:43:35.153Z,94835.81
2023-02-06T00:46:02.063Z,94837.31
2023-02-06T00:48:28.831Z,94841.53
2023-02-06T00:50:55.531Z,94850.56
2023-02-06T00:53:22.950Z,94844.53
2023-02-06T00:55:49.615Z,94847.59
2023-02-06T00:58:16.300Z,94851.44
2023-02-06T01:00:43.009Z,94849.63
2023-02-06T01:03:09.594Z,94850.22
2023-02-06T01:05:36.503Z,94850.34
2023-02-06T01:08:04.552Z,94852.97
2023-02-06T01:10:31.822Z,94848.59
2023-02-06T01:12:58.750Z,94849.84
2023-02-06T01:15:25.761Z,94853.09
2023-02-06T01:17:52.442Z,94856.25
2023-02-06T01:20:19.267Z,94860.59
2023-02-06T01:22:45.902Z,94864.41
2023-02-06T01:25:12.601Z,94866.94
2023-02-06T01:27:39.683Z,94860.69
2023-02-06T01:30:07.684Z,94855.25
2023-02-06T01:32:38.550Z,94863.59
2023-02-06T01:35:07.200Z,94861.78
2023-02-06T01:37:34.251Z,94860.69
2023-02-06T01:40:00.876Z,94857.47
2023-02-06T01:42:27.558Z,94863.66
2023-02-06T01:45:25.377Z,94870.09
2023-02-06T01:47:58.712Z,94859.16
2023-02-06T01:50:25.520Z,94878.38
2023-02-06T01:52:52.525Z,94878.13
2023-02-06T01:55:19.340Z,94868.16
2023-02-06T01:57:46.057Z,94874.03
2023-02-06T02:00:13.053Z,94866.50
2023-02-06T02:02:44.879Z,94877.75
2023-02-06T02:05:12.815Z,94873.09
2023-02-06T02:07:50.164Z,94868.66
2023-02-06T02:10:17.010Z,94871.38
2023-02-06T02:12:43.735Z,94865.63
2023-02-06T02:15:10.398Z,94869.38
2023-02-06T02:17:36.917Z,94871.16
2023-02-06T02:20:21.588Z,94863.09
2023-02-06T02:23:03.448Z,94868.44
2023-02-06T02:25:48.729Z,94859.25
2023-02-06T02:28:37.946Z,94864.03
2023-02-06T02:31:30.147Z,94871.06
2023-02-06T02:34:12.003Z,94876.69
2023-02-06T02:36:49.281Z,94880.06
2023-02-06T02:39:30.557Z,94877.25
2023-02-06T02:42:09.051Z,94878.50
2023-02-06T02:44:47.334Z,94880.00
2023-02-06T02:47:17.698Z,94873.75
2023-02-06T02:49:45.916Z,94870.25
2023-02-06T02:52:14.950Z,94876.50
2023-02-06T02:54:41.636Z,94878.44
2023-02-06T02:57:34.349Z,94877.66
2023-02-06T03:00:02.134Z,94878.84
2023-02-06T03:02:34.998Z,94884.09
2023-02-06T03:05:11.526Z,94885.34
2023-02-06T03:08:18.865Z,94891.31
2023-02-06T03:10:53.635Z,94900.16
2023-02-06T03:13:28.798Z,94889.00
2023-02-06T03:16:03.987Z,94894.00
2023-02-06T03:18:49.025Z,94889.44
2023-02-06T03:21:20.230Z,94890.81
2023-02-06T03:23:50.368Z,94898.66
2023-02-06T03:26:22.468Z,94892.38
2023-02-06T03:28:53.749Z,94898.19
2023-02-06T03:31:28.102Z,94893.19
2023-02-06T03:34:25.577Z,94904.19
2023-02-06T03:36:53.455Z,94904.16
2023-02-06T03:39:21.492Z,94900.22
2023-02-06T03:41:49.730Z,94896.81
2023-02-06T03:44:23.228Z,94899.13
2023-02-06T03:46:52.810Z,94894.84
2023-02-06T03:49:22.521Z,94895.81
2023-02-06T03:51:56.840Z,94900.50
2023-02-06T03:54:25.646Z,94901.88
2023-02-06T03:56:54.917Z,94899.59
2023-02-06T03:59:21.686Z,94898.53
2023-02-06T04:01:52.386Z,94899.19
2023-02-06T04:04:21.785Z,94897.25
2023-02-06T04:06:48.449Z,94905.91
2023-02-06T04:09:15.071Z,94912.19
2023-02-06T04:11:41.649Z,94912.50
2023-02-06T04:14:08.248Z,94912.63
2023-02-06T04:16:34.932Z,94903.31
2023-02-06T04:19:01.830Z,94916.09
2023-02-06T04:21:28.409Z,94911.47
2023-02-06T04:23:55.074Z,94912.88
2023-02-06T04:26:21.668Z,94919.38
2023-02-06T04:28:48.272Z,94918.69
2023-02-06T04:31:15.083Z,94919.50
2023-02-06T04:33:41.731Z,94920.72
2023-02-06T04:36:08.818Z,94917.75
2023-02-06T04:38:35.381Z,94919.28
2023-02-06T04:41:03.988Z,94917.84
2023-02-06T04:43:31.493Z,94920.16
2023-02-06T04:45:58.432Z,94931.47
2023-02-06T04:48:25.629Z,94936.06
2023-02-06T04:50:52.601Z,94927.81
2023-02-06T04:53:19.416Z,94935.25
2023-02-06T04:55:46.195Z,94938.53
2023-02-06T04:58:12.787Z,94944.06
2023-02-06T05:00:39.433Z,94942.66
2023-02-06T05:03:06.076Z,94946.25
2023-02-06T05:05:32.784Z,94947.59
2023-02-06T05:07:59.454Z,94951.13
2023-02-06T05:10:27.003Z,94956.53
2023-02-06T05:12:56.061Z,94963.59
2023-02-06T05:15:22.704Z,94954.22
2023-02-06T05:17:49.401Z,94964.41
2023-02-06T05:20:16.227Z,94955.84
2023-02-06T05:22:42.934Z,94965.50
2023-02-06T05:25:09.561Z,94973.94
2023-02-06T05:27:36.265Z,94981.56
2023-02-06T05:30:03.016Z,94973.25
2023-02-06T05:32:29.601Z,94975.44
2023-02-06T05:34:56.254Z,94981.75
2023-02-06T05:37:22.825Z,94988.88
2023-02-06T05:39:49.563Z,94995.03
2023-02-06T05:42:16.281Z,94993.63
2023-02-06T05:44:42.890Z,94992.16
2023-02-06T05:47:09.534Z,94991.03
2023-02-06T05:49:36.197Z,94992.44
2023-02-06T05:52:02.810Z,94992.38
2023-02-06T05:54:29.449Z,94998.16
2023-02-06T05:56:57.970Z,95002.25
2023-02-06T05:59:24.561Z,94993.44
2023-02-06T06:01:51.223Z,95012.84
2023-02-06T06:04:17.872Z,95002.78
2023-02-06T06:06:44.569Z,95003.63
2023-02-06T06:09:11.461Z,95004.94
2023-02-06T06:11:38.432Z,95011.44
2023-02-06T06:14:05.679Z,95017.66
2023-02-06T06:16:32.445Z,95008.63
2023-02-06T06:18:59.051Z,95007.72
2023-02-06T06:21:25.753Z,95019.38
2023-02-06T06:23:52.404Z,95021.25
2023-02-06T06:26:19.247Z,95032.28
2023-02-06T06:28:46.180Z,95016.25
2023-02-06T06:31:13.188Z,95020.00
2023-02-06T06:33:40.160Z,95010.34
2023-02-06T06:36:08.617Z,95012.44
2023-02-06T06:38:35.379Z,95010.47
2023-02-06T06:41:02.163Z,95012.50
2023-02-06T06:43:28.881Z,95016.81
2023-02-06T06:45:55.611Z,95027.09
2023-02-06T06:48:22.535Z,95017.78
2023-02-06T06:50:50.296Z,95033.72
2023-02-06T06:53:17.132Z,95018.06
2023-02-06T06:55:43.762Z,95020.66
2023-02-06T06:58:10.831Z,95028.16
2023-02-06T07:00:38.765Z,95030.47
2023-02-06T07:03:06.014Z,95036.13
2023-02-06T07:05:32.934Z,95038.06
2023-02-06T07:07:59.576Z,95028.34
2023-02-06T07:10:26.221Z,95030.38
2023-02-06T07:12:53.700Z,95033.63
2023-02-06T07:15:20.995Z,95042.16
2023-02-06T07:17:47.607Z,95051.13
2023-02-06T07:20:14.678Z,95053.69
2023-02-06T07:22:41.501Z,95056.72
2023-02-06T07:25:08.328Z,95060.78
2023-02-06T07:27:34.982Z,95071.56
2023-02-06T07:30:02.989Z,95062.31
2023-02-06T07:32:30.608Z,95060.44
2023-02-06T07:34:57.166Z,95062.66
2023-02-06T07:37:23.772Z,95060.25
2023-02-06T07:39:50.417Z,95059.84
2023-02-06T07:42:17.028Z,95067.34
2023-02-06T07:44:43.697Z,95072.66
2023-02-06T07:47:10.444Z,95067.41
2023-02-06T07:49:37.157Z,95065.41
2023-02-06T07:52:03.922Z,95070.34
2023-02-06T07:54:30.669Z,95072.63
2023-02-06T07:56:57.379Z,95076.75
2023-02-06T07:59:23.993Z,95075.06
2023-02-06T08:01:50.719Z,95076.81
2023-02-06T08:04:17.372Z,95077.84
2023-02-06T08:06:45.078Z,95077.34
2023-02-06T08:09:14.424Z,95066.84
2023-02-06T08:11:41.246Z,95074.31
2023-02-06T08:14:08.058Z,95082.66
2023-02-06T08:16:34.675Z,95078.38
2023-02-06T08:19:01.872Z,95076.81
2023-02-06T08:21:28.529Z,95079.13
2023-02-06T08:23:56.857Z,95088.56
2023-02-06T08:26:24.554Z,95079.94
2023-02-06T08:28:51.999Z,95075.16
2023-02-06T08:31:20.275Z,95067.75
2023-02-06T08:33:51.076Z,95068.31
2023-02-06T08:36:19.560Z,95090.34
2023-02-06T08:38:46.799Z,95083.34
2023-02-06T08:41:22.298Z,95080.84
2023-02-06T08:43:51.277Z,95085.91
2023-02-06T08:46:19.374Z,95088.06
2023-02-06T08:48:46.724Z,95087.84
2023-02-06T08:51:13.875Z,95097.91
2023-02-06T08:53:40.459Z,95090.28
2023-02-06T08:56:10.113Z,95091.91
2023-02-06T08:58:38.180Z,95096.84
2023-02-06T09:01:09.782Z,95092.47
2023-02-06T09:03:36.860Z,95098.56
2023-02-06T09:06:09.874Z,95090.34
2023-02-06T09:08:37.978Z,95086.66
2023-02-06T09:11:08.987Z,95093.34
2023-02-06T09:13:36.068Z,95092.75
2023-02-06T09:16:03.387Z,95094.22
2023-02-06T09:18:30.103Z,95094.63
2023-02-06T09:21:11.447Z,95084.59
2023-02-06T09:23:39.620Z,95086.38
2023-02-06T09:26:06.322Z,95085.75
2023-02-06T09:28:33.418Z,95089.63
2023-02-06T09:31:00.231Z,95091.06
2023-02-06T09:33:27.349Z,95095.84
2023-02-06T09:36:10.701Z,95091.00
2023-02-06T09:38:41.310Z,95095.16
2023-02-06T09:41:35.213Z,95088.09
2023-02-06T09:44:05.692Z,95090.56
2023-02-06T09:46:35.167Z,95074.44
2023-02-06T09:49:10.760Z,95078.41
2023-02-06T09:52:02.258Z,95076.47
2023-02-06T09:54:39.444Z,95079.13
2023-02-06T09:57:24.497Z,95070.50
2023-02-06T09:59:59.382Z,95065.78
2023-02-06T10:02:26.164Z,95062.69
2023-02-06T10:05:14.313Z,95060.78
2023-02-06T10:08:03.607Z,95058.00
2023-02-06T10:10:38.519Z,95049.88
2023-02-06T10:13:10.973Z,95052.84
2023-02-06T10:15:46.557Z,95041.38
2023-02-06T10:18:29.711Z,95042.34
2023-02-06T10:21:04.019Z,95043.91
2023-02-06T10:23:46.085Z,95045.22
2023-02-06T10:26:19.386Z,95035.19
2023-02-06T10:28:54.073Z,95036.47
2023-02-06T10:31:38.191Z,95037.09
2023-02-06T10:34:07.802Z,95034.19
2023-02-06T10:36:55.681Z,95036.00
2023-02-06T10:39:38.335Z,95033.81
2023-02-06T10:42:23.490Z,95041.03
2023-02-06T10:45:13.161Z,95025.66
2023-02-06T10:47:48.754Z,95024.72
2023-02-06T10:50:39.543Z,95024.72
2023-02-06T10:53:21.388Z,95021.94
2023-02-06T10:56:12.716Z,95028.53
2023-02-06T10:58:53.742Z,95021.31
2023-02-06T11:01:26.381Z,95020.75
2023-02-06T11:04:03.402Z,95017.22
2023-02-06T11:06:30.474Z,95026.09
2023-02-06T11:08:57.273Z,95015.22
2023-02-06T11:11:30.080Z,95026.09
2023-02-06T11:14:20.008Z,95019.09
2023-02-06T11:16:47.509Z,95021.78
2023-02-06T11:19:26.257Z,95029.56
2023-02-06T11:22:17.672Z,95029.94
2023-02-06T11:25:07.654Z,95030.06
2023-02-06T11:27:36.007Z,95024.63
2023-02-06T11:30:10.341Z,95012.22
2023-02-06T11:32:52.867Z,95009.50
2023-02-06T11:35:33.802Z,95010.59
2023-02-06T11:38:22.183Z,95023.38
2023-02-06T11:41:04.118Z,95014.66
2023-02-06T11:43:33.465Z,95014.28
2023-02-06T11:46:19.996Z,95009.25
2023-02-06T11:48:55.428Z,95005.09
2023-02-06T11:51:23.900Z,95008.50
2023-02-06T11:54:00.479Z,95002.25
2023-02-06T11:56:28.928Z,95014.47
2023-02-06T11:59:07.692Z,95009.56
2023-02-06T12:01:46.426Z,95000.34
2023-02-06T12:04:32.177Z,95001.69
2023-02-06T12:07:05.782Z,94997.72
2023-02-06T12:09:32.843Z,94998.75
2023-02-06T12:11:59.418Z,95000.50
2023-02-06T12:14:38.430Z,95011.22
2023-02-06T12:17:20.602Z,95010.44
2023-02-06T12:19:57.910Z,95015.16
2023-02-06T12:22:26.770Z,95007.38
2023-02-06T12:24:58.106Z,94996.13
2023-02-06T12:27:39.641Z,95001.84
2023-02-06T12:30:33.679Z,94997.91
2023-02-06T12:33:09.963Z,95002.56
2023-02-06T12:35:44.983Z,95004.78
2023-02-06T12:38:40.273Z,94993.22
2023-02-06T12:41:32.887Z,95000.03
2023-02-06T12:44:19.431Z,95017.94
2023-02-06T12:46:50.091Z,95010.63
2023-02-06T12:49:25.203Z,95020.56
2023-02-06T12:52:15.124Z,95022.19
2023-02-06T12:55:11.041Z,95005.56
2023-02-06T12:57:39.984Z,95008.41
2023-02-06T13:00:32.223Z,95024.84
2023-02-06T13:03:20.000Z,95022.97
2023-02-06T13:06:13.636Z,95022.38
2023-02-06T13:08:48.616Z,95028.75
2023-02-06T13:11:21.131Z,95031.84
2023-02-06T13:13:49.702Z,95028.91
2023-02-06T13:16:16.495Z,95038.53
2023-02-06T13:18:44.716Z,95038.47
2023-02-06T13:21:33.609Z,95041.41
2023-02-06T13:24:02.958Z,95045.59
2023-02-06T13:26:52.286Z,95050.97
2023-02-06T13:29:27.750Z,95049.06
2023-02-06T13:32:12.603Z,95049.28
2023-02-06T13:34:45.030Z,95046.50
2023-02-06T13:37:35.066Z,95048.00
2023-02-06T13:40:22.697Z,95046.38
2023-02-06T13:43:10.399Z,95050.13
2023-02-06T13:45:57.909Z,95050.50
2023-02-06T13:48:52.144Z,95054.09
2023-02-06T13:51:37.493Z,95057.69
2023-02-06T13:54:41.153Z,95050.53
2023-02-06T13:57:23.601Z,95062.75
2023-02-06T14:00:16.610Z,95062.78
2023-02-06T14:02:48.639Z,95071.84
2023-02-06T14:05:20.665Z,95067.13
2023-02-06T14:08:17.522Z,95062.53
2023-02-06T14:10:53.150Z,95065.63
2023-02-06T14:13:50.879Z,95066.06
2023-02-06T14:16:38.605Z,95067.34
2023-02-06T14:19:23.880Z,95069.88
2023-02-06T14:22:04.473Z,95075.81
2023-02-06T14:24:50.007Z,95076.84
2023-02-06T14:27:28.994Z,95089.28
2023-02-06T14:30:16.292Z,95089.69
2023-02-06T14:33:03.132Z,95091.16
2023-02-06T14:35:47.947Z,95086.94
2023-02-06T14:38:50.018Z,95084.94
2023-02-06T14:41:17.640Z,95092.34
2023-02-06T14:43:46.809Z,95095.34
2023-02-06T14:46:17.150Z,95088.03
2023-02-06T14:48:58.522Z,95085.47
2023-02-06T14:51:39.026Z,95088.56
2023-02-06T14:54:34.902Z,95096.22
2023-02-06T14:57:13.882Z,95092.50
2023-02-06T15:00:04.426Z,95106.63
2023-02-06T15:02:33.699Z,95098.25
2023-02-06T15:05:02.250Z,95096.69
2023-02-06T15:07:35.133Z,95100.28
2023-02-06T15:10:05.736Z,95095.59
2023-02-06T15:12:33.155Z,95105.00
2023-02-06T15:15:14.275Z,95111.09
2023-02-06T15:17:41.165Z,95108.22
2023-02-06T15:20:33.786Z,95108.31
2023-02-06T15:23:17.011Z,95111.84
2023-02-06T15:26:16.914Z,95114.44
2023-02-06T15:28:44.421Z,95126.94
2023-02-06T15:31:18.730Z,95127.72
2023-02-06T15:33:50.299Z,95132.75
2023-02-06T15:36:25.148Z,95142.19
2023-02-06T15:38:52.531Z,95132.88
2023-02-06T15:41:19.704Z,95145.25
2023-02-06T15:43:46.985Z,95149.13
2023-02-06T15:46:14.853Z,95146.22
2023-02-06T15:48:51.367Z,95155.31
2023-02-06T15:51:23.198Z,95154.31
2023-02-06T15:53:51.990Z,95151.19
2023-02-06T15:56:31.819Z,95149.94
2023-02-06T15:59:01.188Z,95160.50
2023-02-06T16:01:31.076Z,95156.22
2023-02-06T16:04:03.979Z,95170.88
2023-02-06T16:06:31.046Z,95173.09
2023-02-06T16:09:02.932Z,95175.97
2023-02-06T16:11:51.195Z,95176.31
2023-02-06T16:14:38.918Z,95174.06
2023-02-06T16:17:35.904Z,95183.69
2023-02-06T16:20:26.984Z,95188.25
2023-02-06T16:22:57.289Z,95200.31
2023-02-06T16:25:30.300Z,95198.34
2023-02-06T16:27:57.321Z,95187.09
2023-02-06T16:30:26.521Z,95199.13
2023-02-06T16:32:55.456Z,95213.03
2023-02-06T16:35:23.757Z,95213.69
2023-02-06T16:37:52.646Z,95213.53
2023-02-06T16:40:20.079Z,95218.00
2023-02-06T16:42:47.748Z,95216.84
2023-02-06T16:45:26.723Z,95218.31
2023-02-06T16:47:54.546Z,95217.25
2023-02-06T16:50:21.821Z,95225.72
2023-02-06T16:52:54.495Z,95231.97
2023-02-06T16:55:23.607Z,95227.69
2023-02-06T16:57:54.865Z,95229.50
2023-02-06T17:00:23.004Z,95236.31
2023-02-06T17:02:54.214Z,95241.47
2023-02-06T17:05:24.547Z,95252.25
2023-02-06T17:07:51.481Z,95251.16
2023-02-06T17:10:20.331Z,95241.00
2023-02-06T17:12:48.049Z,95252.28
2023-02-06T17:15:17.022Z,95260.16
2023-02-06T17:17:44.337Z,95260.50
2023-02-06T17:20:29.458Z,95262.28
2023-02-06T17:22:56.132Z,95263.97
2023-02-06T17:25:22.719Z,95265.44
2023-02-06T17:27:49.480Z,95263.03
2023-02-06T17:30:22.144Z,95273.19
2023-02-06T17:32:49.215Z,95271.50
2023-02-06T17:35:16.946Z,95287.25
2023-02-06T17:37:43.948Z,95291.06
2023-02-06T17:40:21.876Z,95286.00
2023-02-06T17:42:49.158Z,95290.66
2023-02-06T17:45:16.388Z,95285.41
2023-02-06T17:47:43.436Z,95271.81
2023-02-06T17:50:14.843Z,95276.72
2023-02-06T17:52:41.497Z,95276.72
2023-02-06T17:55:09.103Z,95281.16
2023-02-06T17:57:36.372Z,95285.00
2023-02-06T18:00:07.983Z,95279.19
2023-02-06T18:02:34.804Z,95284.56
2023-02-06T18:05:01.997Z,95294.78
2023-02-06T18:07:28.718Z,95296.09
2023-02-06T18:09:55.673Z,95281.91
2023-02-06T18:12:22.373Z,95293.50
2023-02-06T18:14:50.060Z,95293.50
2023-02-06T18:17:18.213Z,95291.69
2023-02-06T18:19:46.576Z,95299.09
2023-02-06T18:22:15.778Z,95289.53
2023-02-06T18:24:43.362Z,95284.16
2023-02-06T18:27:10.822Z,95285.00
2023-02-06T18:29:50.528Z,95286.06
2023-02-06T18:32:18.927Z,95299.09
2023-02-06T18:34:46.242Z,95294.97
2023-02-06T18:37:12.964Z,95300.50
2023-02-06T18:39:39.758Z,95306.69
2023-02-06T18:42:24.906Z,95302.03
2023-02-06T18:44:51.563Z,95311.94
2023-02-06T18:47:18.927Z,95304.09
2023-02-06T18:49:45.957Z,95295.13
2023-02-06T18:52:12.812Z,95295.91
2023-02-06T18:54:39.727Z,95294.13
2023-02-06T18:57:06.724Z,95298.47
2023-02-06T18:59:34.087Z,95304.97
2023-02-06T19:02:00.785Z,95303.78
2023-02-06T19:04:27.474Z,95306.47
2023-02-06T19:06:54.120Z,95305.69
2023-02-06T19:09:20.903Z,95305.66
2023-02-06T19:11:48.354Z,95319.34
2023-02-06T19:14:17.378Z,95307.22
2023-02-06T19:16:47.404Z,95303.88
2023-02-06T19:19:14.929Z,95302.81
2023-02-06T19:21:43.855Z,95299.44
2023-02-06T19:24:15.172Z,95304.16
2023-02-06T19:26:42.197Z,95302.41
2023-02-06T19:29:09.564Z,95297.09
2023-02-06T19:31:39.234Z,95304.59
2023-02-06T19:34:07.249Z,95302.19
2023-02-06T19:36:34.396Z,95302.31
2023-02-06T19:39:05.220Z,95312.00
2023-02-06T19:41:34.600Z,95307.75
2023-02-06T19:44:05.157Z,95320.06
2023-02-06T19:46:32.221Z,95317.44
2023-02-06T19:48:58.918Z,95308.44
2023-02-06T19:51:28.407Z,95312.13
2023-02-06T19:53:57.678Z,95314.13
2023-02-06T19:56:34.719Z,95312.09
2023-02-06T19:59:03.720Z,95319.47
2023-02-06T20:01:31.331Z,95312.63
2023-02-06T20:04:00.062Z,95316.66
2023-02-06T20:06:28.391Z,95316.69
2023-02-06T20:08:57.497Z,95318.66
2023-02-06T20:11:24.827Z,95316.47
2023-02-06T20:13:55.709Z,95319.53
2023-02-06T20:16:25.650Z,95317.00
2023-02-06T20:18:53.198Z,95319.78
2023-02-06T20:21:32.367Z,95315.09
2023-02-06T20:24:01.673Z,95320.34
2023-02-06T20:26:31.727Z,95315.78
2023-02-06T20:28:58.711Z,95324.59
2023-02-06T20:31:26.401Z,95325.41
2023-02-06T20:33:53.406Z,95328.47
2023-02-06T20:36:22.634Z,95319.31
2023-02-06T20:38:59.761Z,95323.69
2023-02-06T20:41:31.085Z,95331.25
2023-02-06T20:43:59.929Z,95333.94
2023-02-06T20:46:29.719Z,95319.97
2023-02-06T20:48:58.851Z,95331.16
2023-02-06T20:51:26.274Z,95333.03
2023-02-06T20:53:52.995Z,95329.53
2023-02-06T20:56:20.686Z,95337.84
2023-02-06T20:58:47.938Z,95322.56
2023-02-06T21:01:24.231Z,95332.44
2023-02-06T21:03:54.064Z,95331.31
2023-02-06T21:06:21.058Z,95333.06
2023-02-06T21:08:50.292Z,95337.28
2023-02-06T21:11:17.462Z,95332.47
2023-02-06T21:13:45.359Z,95335.75
2023-02-06T21:16:13.578Z,95333.78
2023-02-06T21:18:42.661Z,95326.09
2023-02-06T21:21:12.475Z,95329.50
2023-02-06T21:23:40.785Z,95324.56
2023-02-06T21:26:08.940Z,95315.91
2023-02-06T21:28:36.725Z,95322.69
2023-02-06T21:31:13.906Z,95329.44
2023-02-06T21:33:40.760Z,95336.88
2023-02-06T21:36:07.955Z,95328.31
2023-02-06T21:38:37.647Z,95329.97
2023-02-06T21:41:13.037Z,95328.91
2023-02-06T21:43:39.765Z,95337.38
2023-02-06T21:46:06.863Z,95328.63
2023-02-06T21:48:35.279Z,95334.72
2023-02-06T21:51:12.947Z,95334.91
2023-02-06T21:53:40.172Z,95345.69
2023-02-06T21:56:09.273Z,95337.34
2023-02-06T21:58:36.897Z,95336.97
2023-02-06T22:01:08.852Z,95346.25
2023-02-06T22:03:35.778Z,95350.47
2023-02-06T22:06:08.587Z,95347.56
2023-02-06T22:08:36.499Z,95349.84
2023-02-06T22:11:14.593Z,95367.91
2023-02-06T22:13:42.778Z,95358.97
2023-02-06T22:16:10.827Z,95356.16
2023-02-06T22:18:37.550Z,95355.19
2023-02-06T22:21:08.107Z,95353.69
2023-02-06T22:23:35.451Z,95359.50
2023-02-06T22:26:03.168Z,95357.50
2023-02-06T22:28:30.714Z,95358.97
2023-02-06T22:31:05.514Z,95366.06
2023-02-06T22:33:32.599Z,95359.25
2023-02-06T22:35:59.387Z,95364.19
2023-02-06T22:38:26.081Z,95357.97
2023-02-06T22:41:01.592Z,95358.69
2023-02-06T22:43:32.948Z,95358.69
2023-02-06T22:45:59.970Z,95358.53
2023-02-06T22:48:27.049Z,95364.31
2023-02-06T22:50:54.067Z,95358.03
2023-02-06T22:53:31.854Z,95366.31
2023-02-06T22:56:23.376Z,95365.09
2023-02-06T22:58:51.219Z,95370.38
2023-02-06T23:01:19.925Z,95363.09
2023-02-06T23:03:46.725Z,95359.84
2023-02-06T23:06:15.793Z,95366.22
2023-02-06T23:08:43.489Z,95362.34
2023-02-06T23:11:11.084Z,95363.25
2023-02-06T23:13:38.336Z,95367.06
2023-02-06T23:16:05.292Z,95375.69
2023-02-06T23:18:32.174Z,95369.94
2023-02-06T23:21:08.267Z,95357.47
2023-02-06T23:23:34.852Z,95364.94
2023-02-06T23:26:01.947Z,95379.28
2023-02-06T23:28:29.359Z,95376.09
2023-02-06T23:30:56.125Z,95374.09
2023-02-06T23:33:23.132Z,95375.31
2023-02-06T23:35:49.869Z,95379.28
2023-02-06T23:38:17.193Z,95373.59
2023-02-06T23:40:44.631Z,95372.38
2023-02-06T23:43:11.445Z,95383.81
2023-02-06T23:45:39.924Z,95390.13
2023-02-06T23:48:06.725Z,95381.72
2023-02-06T23:50:33.455Z,95379.03
2023-02-06T23:53:00.143Z,95380.53
2023-02-06T23:55:28.502Z,95379.75
2023-02-06T23:57:55.168Z,95383.72
